Time;durP1;ratioP1;P1;durP2;ratioP2;P2;SDS_P1;SDS_P2;PMS_P1;PMS_P2;Temp;Humidity;BMP_temperature;BMP_pressure;BME280_temperature;BME280_humidity;BME280_pressure;Samples;Min_cycle;Max_cycle;Signal;HPM_P1;HPM_P2
2022/08/02 00:00:46;;;;;;;13.45;2.50;;;;;;;25.83;42.41;98815.91;5054357;28;20027;-47
2022/08/02 00:03:12;;;;;;;7.25;2.03;;;;;;;26.31;41.46;98816.31;5054606;28;20060;-46
2022/08/02 00:05:38;;;;;;;8.48;2.10;;;;;;;26.53;41.06;98814.00;5054209;28;20029;-47
2022/08/02 00:08:03;;;;;;;9.00;1.98;;;;;;;26.50;40.82;98815.41;5054241;28;20397;-46
2022/08/02 00:10:29;;;;;;;7.63;1.92;;;;;;;26.37;40.97;98813.53;5072068;28;20024;-46
2022/08/02 00:12:55;;;;;;;3.65;1.67;;;;;;;26.20;41.20;98817.66;5054213;28;20502;-46
2022/08/02 00:15:21;;;;;;;3.72;2.03;;;;;;;26.02;41.59;98810.50;5072085;28;20020;-47
2022/08/02 00:17:47;;;;;;;3.65;1.85;;;;;;;25.86;42.13;98826.88;5054212;28;20031;-46
2022/08/02 00:20:13;;;;;;;4.53;1.63;;;;;;;25.90;41.87;98811.78;5072033;28;20021;-46
2022/08/02 00:22:39;;;;;;;8.48;2.20;;;;;;;25.90;42.19;98819.06;5054101;28;20039;-48
2022/08/02 00:25:06;;;;;;;6.07;2.08;;;;;;;25.88;42.28;98813.94;5071984;28;20433;-49
2022/08/02 00:27:31;;;;;;;5.30;1.70;;;;;;;26.00;42.47;98812.69;5047390;28;20071;-48
2022/08/02 00:30:00;;;;;;;4.10;1.70;;;;;;;26.08;42.10;98812.78;5051877;28;20025;-48
2022/08/02 00:32:27;;;;;;;6.75;2.42;;;;;;;26.05;42.27;98809.88;5033991;28;20614;-48
2022/08/02 00:34:52;;;;;;;3.30;1.45;;;;;;;26.01;42.23;98812.38;5051864;28;20025;-47
2022/08/02 00:37:18;;;;;;;7.93;1.80;;;;;;;25.99;42.64;98814.56;5051015;28;20074;-46
2022/08/02 00:39:44;;;;;;;7.68;1.92;;;;;;;25.95;42.70;98813.56;5033823;28;20120;-47
2022/08/02 00:42:14;;;;;;;4.88;1.80;;;;;;;25.93;42.94;98810.38;5051776;28;20021;-47
2022/08/02 00:44:39;;;;;;;8.88;2.05;;;;;;;26.03;42.69;98818.25;5033818;28;20028;-47
2022/08/02 00:47:05;;;;;;;9.20;2.05;;;;;;;26.11;42.68;98808.69;5051618;28;20442;-47
2022/08/02 00:49:31;;;;;;;8.68;2.25;;;;;;;26.27;42.72;98806.47;5051578;28;20037;-47
2022/08/02 00:51:56;;;;;;;12.35;2.75;;;;;;;26.42;42.77;98802.66;5051645;28;20088;-47
2022/08/02 00:54:22;;;;;;;6.95;1.67;;;;;;;26.58;42.38;98803.16;5051591;28;20168;-47
2022/08/02 00:56:48;;;;;;;14.38;2.80;;;;;;;26.67;42.41;98798.66;5051505;28;20017;-46
2022/08/02 00:59:13;;;;;;;5.40;1.73;;;;;;;26.87;41.99;98802.78;5033615;28;20029;-46
2022/08/02 01:01:40;;;;;;;10.45;1.95;;;;;;;26.97;41.42;98805.22;5051548;28;20098;-47
2022/08/02 01:04:10;;;;;;;5.45;1.90;;;;;;;26.96;41.91;98797.44;5051540;28;20518;-46
2022/08/02 01:06:37;;;;;;;9.65;2.42;;;;;;;26.94;41.92;98799.66;5033919;28;20057;-47
2022/08/02 01:09:04;;;;;;;10.07;1.70;;;;;;;26.94;41.74;98797.75;5051544;28;20123;-47
2022/08/02 01:11:30;;;;;;;11.77;2.28;;;;;;;26.94;41.84;98795.03;5051427;28;20025;-47
2022/08/02 01:14:01;;;;;;;8.50;1.90;;;;;;;26.90;41.57;98794.88;5051454;28;20017;-48
2022/08/02 01:16:32;;;;;;;9.43;2.20;;;;;;;26.79;42.03;98790.84;5033537;28;20029;-48
2022/08/02 01:19:29;;;;;;;7.22;1.70;;;;;;;26.74;42.47;98788.25;5017320;28;20024;-48
2022/08/02 01:21:57;;;;;;;7.15;2.60;;;;;;;26.71;42.22;98794.25;5036924;28;20032;-48
2022/08/02 01:24:37;;;;;;;15.90;3.33;;;;;;;26.68;42.71;98787.59;5051315;28;20025;-47
2022/08/02 01:27:40;;;;;;;7.43;2.38;;;;;;;26.73;42.80;98789.34;5053608;28;20494;-48
2022/08/02 01:30:06;;;;;;;8.30;2.08;;;;;;;26.74;42.61;98790.94;5053578;28;20033;-48
2022/08/02 01:32:39;;;;;;;6.80;2.50;;;;;;;26.75;42.74;98791.75;5053312;28;20020;-48
2022/08/02 01:35:25;;;;;;;6.22;1.92;;;;;;;26.73;42.72;98794.75;5071348;28;20033;-48
2022/08/02 01:37:56;;;;;;;8.65;2.22;;;;;;;26.72;42.63;98800.44;5071296;28;20028;-48
2022/08/02 01:40:28;;;;;;;11.20;2.10;;;;;;;26.63;42.74;98800.34;5071273;28;20031;-47
2022/08/02 01:42:57;;;;;;;13.05;2.45;;;;;;;26.57;42.84;98805.03;5071191;28;20033;-48
2022/08/02 01:45:25;;;;;;;11.52;2.00;;;;;;;26.55;42.93;98809.13;5071174;28;20028;-48
2022/08/02 01:47:53;;;;;;;11.43;2.25;;;;;;;26.58;43.27;98800.47;5071849;28;20025;-48
2022/08/02 01:50:25;;;;;;;6.65;2.42;;;;;;;26.58;43.26;98798.59;5056812;28;20115;-48
2022/08/02 01:52:55;;;;;;;9.63;1.98;;;;;;;26.55;43.14;98799.16;5074835;28;20028;-48
2022/08/02 01:55:33;;;;;;;10.00;2.83;;;;;;;26.50;43.07;98800.06;5056791;28;20028;-48
2022/08/02 01:58:02;;;;;;;4.57;1.55;;;;;;;26.43;43.29;98796.97;5056861;28;20035;-48
2022/08/02 02:00:35;;;;;;;5.90;2.20;;;;;;;26.42;43.42;98795.41;5074723;28;20048;-48
2022/08/02 02:03:04;;;;;;;9.40;2.47;;;;;;;26.42;43.49;98790.03;5074703;28;20509;-48
2022/08/02 02:05:31;;;;;;;10.93;2.65;;;;;;;26.41;43.90;98793.78;5056679;28;20102;-48
2022/08/02 02:07:59;;;;;;;11.82;2.47;;;;;;;26.39;43.79;98789.81;5074620;28;20502;-48
2022/08/02 02:10:28;;;;;;;10.82;2.63;;;;;;;26.40;43.86;98789.53;5074507;28;20070;-47
2022/08/02 02:12:57;;;;;;;10.27;2.10;;;;;;;26.43;43.83;98788.13;5074482;28;20033;-48
2022/08/02 02:15:24;;;;;;;6.65;2.00;;;;;;;26.36;43.78;98787.72;5074416;28;20513;-48
2022/08/02 02:17:52;;;;;;;8.57;1.88;;;;;;;26.31;43.68;98785.94;5056481;28;20020;-48
2022/08/02 02:20:20;;;;;;;8.60;2.30;;;;;;;26.31;44.00;98789.41;5074320;28;20027;-48
2022/08/02 02:22:47;;;;;;;6.57;2.30;;;;;;;26.31;43.91;98792.13;5074292;28;20027;-48
2022/08/02 02:25:14;;;;;;;11.15;2.20;;;;;;;26.27;44.15;98798.41;5074219;28;20017;-49
2022/08/02 02:28:04;;;;;;;9.55;2.30;;;;;;;26.22;44.29;98780.47;5073972;28;20045;-48
2022/08/02 02:30:32;;;;;;;8.35;2.13;;;;;;;26.15;44.38;98790.84;5074124;28;20032;-48
2022/08/02 02:33:02;;;;;;;9.30;2.47;;;;;;;26.18;44.64;98784.88;5074111;28;20017;-48
2022/08/02 02:35:30;;;;;;;12.70;2.72;;;;;;;26.17;44.26;98794.03;5074097;28;20105;-48
2022/08/02 02:38:00;;;;;;;12.93;3.30;;;;;;;26.09;44.60;98792.03;5055946;28;20098;-48
2022/08/02 02:40:28;;;;;;;7.22;1.90;;;;;;;26.00;44.72;98791.97;5073947;28;20110;-48
2022/08/02 02:42:56;;;;;;;11.68;2.17;;;;;;;25.98;45.10;98787.97;5056163;28;20023;-49
2022/08/02 02:45:22;;;;;;;10.27;2.63;;;;;;;25.98;44.84;98786.09;5055866;28;20095;-48
2022/08/02 02:47:49;;;;;;;8.25;1.90;;;;;;;25.90;45.38;98790.25;5073794;28;20023;-49
2022/08/02 02:50:17;;;;;;;14.75;2.85;;;;;;;25.85;45.49;98789.53;5073701;28;20028;-48
2022/08/02 02:52:43;;;;;;;8.50;2.72;;;;;;;25.81;45.42;98785.84;5073709;28;20513;-48
2022/08/02 02:55:10;;;;;;;10.95;2.92;;;;;;;25.79;45.50;98788.03;5073706;28;20469;-48
2022/08/02 02:57:38;;;;;;;9.57;1.73;;;;;;;25.76;45.59;98791.34;5055655;28;20429;-48
2022/08/02 03:00:11;;;;;;;7.20;2.08;;;;;;;25.74;45.82;98780.88;5054823;28;20039;-48
2022/08/02 03:02:38;;;;;;;12.80;2.65;;;;;;;25.67;45.90;98781.25;5073818;28;20104;-48
2022/08/02 03:05:07;;;;;;;4.60;1.83;;;;;;;25.58;46.05;98788.41;5073467;28;20127;-48
2022/08/02 03:07:33;;;;;;;13.52;2.85;;;;;;;25.50;46.07;98781.06;5055455;28;20440;-48
2022/08/02 03:09:59;;;;;;;4.15;1.73;;;;;;;25.46;46.25;98791.59;5055327;28;20028;-48
2022/08/02 03:12:26;;;;;;;8.75;2.60;;;;;;;25.43;46.62;98777.94;5073369;28;20024;-48
2022/08/02 03:14:53;;;;;;;10.02;2.22;;;;;;;25.36;46.82;98783.72;5073286;28;20555;-47
2022/08/02 03:17:18;;;;;;;8.60;2.00;;;;;;;25.31;47.38;98781.91;5073186;28;20055;-48
2022/08/02 03:19:45;;;;;;;3.72;1.92;;;;;;;25.28;47.09;98769.06;5055371;28;20028;-49
2022/08/02 03:22:10;;;;;;;6.35;1.70;;;;;;;25.30;47.06;98772.25;5073088;28;20031;-48
2022/08/02 03:24:36;;;;;;;9.55;2.45;;;;;;;25.30;47.12;98772.25;5054982;28;20112;-47
2022/08/02 03:27:02;;;;;;;12.10;3.10;;;;;;;25.26;47.20;98779.31;5055080;28;20016;-48
2022/08/02 03:29:28;;;;;;;24.33;2.58;;;;;;;25.22;47.50;98780.19;5054993;28;20550;-48
2022/08/02 03:31:55;;;;;;;24.02;5.13;;;;;;;25.22;47.49;98774.81;5054882;28;20052;-48
2022/08/02 03:34:21;;;;;;;15.60;3.25;;;;;;;25.20;47.45;98772.41;5072926;28;20032;-47
2022/08/02 03:36:51;;;;;;;7.88;2.10;;;;;;;25.14;47.42;98773.56;5054875;28;20530;-48
2022/08/02 03:39:19;;;;;;;6.20;2.10;;;;;;;25.06;47.59;98774.25;5072840;28;20024;-48
2022/08/02 03:41:45;;;;;;;5.68;2.42;;;;;;;24.98;48.02;98773.03;5073185;28;20563;-48
2022/08/02 03:44:12;;;;;;;7.20;2.00;;;;;;;24.88;48.11;98775.88;5072689;28;20074;-48
2022/08/02 03:46:40;;;;;;;11.98;2.70;;;;;;;24.86;48.12;98768.09;5072609;28;20059;-47
2022/08/02 03:49:07;;;;;;;11.05;2.20;;;;;;;24.80;48.41;98776.53;5072644;28;20024;-48
2022/08/02 03:51:36;;;;;;;10.27;2.92;;;;;;;24.75;48.61;98772.03;5072458;28;20024;-48
2022/08/02 03:54:02;;;;;;;7.72;2.00;;;;;;;24.74;48.60;98773.13;5072511;28;20025;-48
2022/08/02 03:56:29;;;;;;;11.02;2.35;;;;;;;24.70;48.72;98766.75;5072451;28;20474;-48
2022/08/02 03:59:12;;;;;;;18.17;3.03;;;;;;;24.64;49.07;98767.91;5072403;28;20054;-47
2022/08/02 04:01:40;;;;;;;8.40;2.70;;;;;;;24.66;49.06;98768.41;5072300;28;20032;-48
2022/08/02 04:04:07;;;;;;;12.10;2.30;;;;;;;24.64;49.13;98773.28;5054390;28;20059;-48
2022/08/02 04:06:32;;;;;;;11.82;2.30;;;;;;;24.67;49.08;98776.19;5054324;28;20111;-48
2022/08/02 04:08:58;;;;;;;20.20;3.00;;;;;;;24.66;49.15;98782.63;5072248;28;20032;-48
2022/08/02 04:11:29;;;;;;;9.27;2.17;;;;;;;24.72;49.30;98778.78;5054057;28;20020;-48
2022/08/02 04:13:56;;;;;;;7.40;2.88;;;;;;;24.81;48.78;98786.97;5054250;28;20028;-47
2022/08/02 04:16:27;;;;;;;20.83;3.40;;;;;;;24.90;49.17;98782.53;5054163;28;20470;-48
2022/08/02 04:18:57;;;;;;;35.85;3.45;;;;;;;25.12;48.42;98781.91;5072121;28;20056;-48
2022/08/02 04:21:27;;;;;;;10.65;2.47;;;;;;;25.07;48.20;98779.31;5054049;28;20032;-47
2022/08/02 04:23:55;;;;;;;9.00;2.05;;;;;;;24.99;48.54;98781.88;5072008;28;20103;-47
2022/08/02 04:26:22;;;;;;;22.02;2.92;;;;;;;24.83;48.50;98784.81;5071970;28;20061;-48
2022/08/02 04:28:49;;;;;;;12.02;2.35;;;;;;;24.86;48.87;98794.16;5053759;28;20052;-48
2022/08/02 04:31:17;;;;;;;17.17;2.97;;;;;;;24.73;48.79;98798.38;5071830;28;20552;-48
2022/08/02 04:33:45;;;;;;;22.35;3.42;;;;;;;24.80;49.27;98798.00;5053918;28;20032;-48
2022/08/02 04:36:14;;;;;;;18.33;2.72;;;;;;;25.06;48.76;98803.78;5072189;28;20032;-48
2022/08/02 04:38:41;;;;;;;19.35;2.95;;;;;;;25.18;48.48;98797.97;5053820;28;20048;-48
2022/08/02 04:41:06;;;;;;;23.23;3.55;;;;;;;25.25;48.49;98799.22;5071731;28;20028;-49
2022/08/02 04:43:32;;;;;;;15.90;2.80;;;;;;;25.28;48.02;98801.28;5071767;28;20028;-48
2022/08/02 04:46:02;;;;;;;29.85;3.50;;;;;;;25.19;48.20;98811.06;5053792;28;20058;-47
2022/08/02 04:48:28;;;;;;;15.60;2.88;;;;;;;25.13;48.04;98804.19;5053749;28;20394;-48
2022/08/02 04:50:54;;;;;;;31.10;4.15;;;;;;;25.06;48.49;98819.91;5071635;28;20055;-48
2022/08/02 04:53:20;;;;;;;21.20;4.25;;;;;;;25.12;48.28;98818.72;5053756;28;20426;-48
2022/08/02 04:55:46;;;;;;;25.00;3.30;;;;;;;25.40;47.89;98822.31;5053677;28;20112;-48
2022/08/02 04:58:13;;;;;;;14.65;2.83;;;;;;;26.13;46.31;98822.63;5071735;28;20024;-48
2022/08/02 05:00:38;;;;;;;14.45;2.33;;;;;;;26.77;44.70;98817.25;5071820;28;20466;-48
2022/08/02 05:03:04;;;;;;;21.75;4.32;;;;;;;27.06;44.03;98816.88;5053653;28;20119;-48
2022/08/02 05:05:30;;;;;;;15.68;2.95;;;;;;;27.08;43.71;98816.53;5053603;28;20025;-48
2022/08/02 05:07:56;;;;;;;36.97;4.70;;;;;;;27.11;44.00;98815.94;5071567;28;20029;-48
2022/08/02 05:10:23;;;;;;;34.35;3.90;;;;;;;27.19;43.60;98822.50;5071526;28;20016;-48
2022/08/02 05:12:48;;;;;;;25.25;3.72;;;;;;;27.28;43.45;98820.66;5053509;28;20024;-48
2022/08/02 05:15:17;;;;;;;32.78;5.30;;;;;;;27.38;42.94;98819.63;5071434;28;20043;-48
2022/08/02 05:17:43;;;;;;;81.55;9.05;;;;;;;27.52;42.57;98816.84;5071452;28;20024;-47
2022/08/02 05:20:12;;;;;;;15.15;2.55;;;;;;;27.53;42.96;98821.13;5071500;28;20020;-48
2022/08/02 05:22:40;;;;;;;22.23;3.20;;;;;;;27.65;42.79;98821.38;5071872;28;20039;-47
2022/08/02 05:25:07;;;;;;;24.08;4.03;;;;;;;27.98;41.97;98821.84;5057457;28;20031;-46
2022/08/02 05:27:33;;;;;;;20.45;3.63;;;;;;;28.42;40.86;98822.75;5075090;28;20048;-47
2022/08/02 05:29:59;;;;;;;26.67;4.25;;;;;;;28.98;40.01;98814.06;5057239;28;20027;-48
2022/08/02 05:32:25;;;;;;;20.40;3.42;;;;;;;29.65;38.72;98810.75;5075168;28;20031;-48
2022/08/02 05:34:51;;;;;;;24.38;5.70;;;;;;;30.14;37.58;98807.69;5057202;28;20111;-49
2022/08/02 05:37:17;;;;;;;15.80;2.88;;;;;;;30.70;36.53;98807.50;5057149;28;20459;-46
2022/08/02 05:39:43;;;;;;;12.68;3.08;;;;;;;31.23;35.63;98811.38;5075032;28;20043;-46
2022/08/02 05:42:09;;;;;;;34.28;4.28;;;;;;;31.76;34.35;98813.53;5057021;28;20020;-47
2022/08/02 05:44:35;;;;;;;22.70;3.42;;;;;;;32.29;33.81;98813.66;5074967;28;20021;-47
2022/08/02 05:47:01;;;;;;;42.15;6.13;;;;;;;32.75;32.81;98814.25;5074928;28;20043;-49
2022/08/02 05:49:26;;;;;;;17.92;3.17;;;;;;;33.15;32.24;98811.50;5074938;28;20029;-47
2022/08/02 05:52:01;;;;;;;13.77;2.42;;;;;;;33.45;31.32;98816.53;5074750;28;20509;-48
2022/08/02 05:54:42;;;;;;;19.95;2.90;;;;;;;33.81;31.07;98823.69;5074876;28;20497;-47
2022/08/02 05:57:20;;;;;;;62.72;5.18;;;;;;;34.35;30.09;98818.69;5074832;28;20028;-47
2022/08/02 06:00:12;;;;;;;18.55;2.40;;;;;;;34.88;29.34;98810.88;5056839;28;20085;-48
2022/08/02 06:03:03;;;;;;;25.85;3.33;;;;;;;35.13;28.84;98811.34;5074145;28;20123;-47
2022/08/02 06:05:38;;;;;;;15.48;2.72;;;;;;;35.40;28.31;98809.53;5074548;28;20043;-48
2022/08/02 06:08:08;;;;;;;18.63;2.45;;;;;;;35.82;27.93;98816.09;5056655;28;20116;-47
2022/08/02 06:10:36;;;;;;;24.15;2.97;;;;;;;36.30;26.97;98813.69;5074383;28;20029;-47
2022/08/02 06:13:11;;;;;;;7.68;2.28;;;;;;;36.56;26.64;98812.88;5074438;28;20032;-47
2022/08/02 06:15:38;;;;;;;6.68;2.00;;;;;;;36.61;26.33;98813.69;5074405;28;20070;-47
2022/08/02 06:18:06;;;;;;;31.80;3.70;;;;;;;36.58;26.86;98817.94;5074307;28;20021;-46
2022/08/02 06:20:36;;;;;;;16.45;2.38;;;;;;;36.59;26.57;98814.84;5056330;28;20033;-49
2022/08/02 06:23:04;;;;;;;24.63;3.45;;;;;;;36.50;26.49;98805.34;5074521;28;20040;-48
2022/08/02 06:25:32;;;;;;;29.73;3.45;;;;;;;36.82;25.93;98805.75;5074226;28;20021;-48
2022/08/02 06:28:04;;;;;;;29.92;3.78;;;;;;;36.84;25.90;98802.66;5046282;28;20143;-49
2022/08/02 06:30:31;;;;;;;11.15;2.63;;;;;;;36.81;25.95;98800.69;5054023;28;20021;-47
2022/08/02 06:32:57;;;;;;;16.02;2.10;;;;;;;36.23;26.36;98812.81;5054111;28;20033;-48
2022/08/02 06:35:39;;;;;;;10.68;2.17;;;;;;;35.59;27.23;98808.66;5052818;28;20028;-48
2022/08/02 06:38:06;;;;;;;9.27;2.20;;;;;;;35.61;27.17;98795.44;5054060;28;20033;-48
2022/08/02 06:40:55;;;;;;;9.75;1.73;;;;;;;36.30;26.67;98797.31;5053882;28;20032;-48
2022/08/02 06:43:45;;;;;;;6.20;2.28;;;;;;;37.29;25.20;98795.31;5054194;28;20502;-48
2022/08/02 06:46:11;;;;;;;14.10;2.60;;;;;;;37.91;24.70;98794.66;5035987;28;20033;-49
2022/08/02 06:48:37;;;;;;;10.60;2.33;;;;;;;38.21;24.12;98794.47;5053737;28;20029;-49
2022/08/02 06:51:04;;;;;;;18.60;2.30;;;;;;;38.40;23.49;98795.38;5053686;28;20024;-49
2022/08/02 06:53:31;;;;;;;13.50;1.90;;;;;;;38.42;23.70;98788.31;5053770;28;20040;-49
2022/08/02 06:55:56;;;;;;;27.65;2.97;;;;;;;38.15;24.12;98793.28;5053709;28;20067;-49
2022/08/02 06:58:23;;;;;;;23.80;3.40;;;;;;;38.36;24.26;98798.88;5053668;28;20433;-49
2022/08/02 07:00:49;;;;;;;10.20;2.55;;;;;;;38.87;22.89;98782.63;5053619;28;20449;-49
2022/08/02 07:03:14;;;;;;;29.45;4.55;;;;;;;39.41;22.62;98780.75;5035692;28;20426;-49
2022/08/02 07:05:40;;;;;;;24.20;3.38;;;;;;;39.39;22.83;98783.09;5053494;28;20025;-49
2022/08/02 07:08:06;;;;;;;11.05;2.17;;;;;;;39.48;22.41;98780.00;5053438;28;20107;-46
2022/08/02 07:10:32;;;;;;;8.15;1.95;;;;;;;39.75;22.14;98775.66;5035414;28;20441;-47
2022/08/02 07:12:58;;;;;;;12.45;2.63;;;;;;;40.47;21.67;98781.00;5053426;28;20033;-46
2022/08/02 07:15:23;;;;;;;8.15;1.90;;;;;;;40.48;21.52;98784.53;5035296;28;20053;-47
2022/08/02 07:17:49;;;;;;;35.17;3.75;;;;;;;40.49;21.66;98780.63;5053333;28;20040;-49
2022/08/02 07:20:15;;;;;;;11.13;2.22;;;;;;;40.37;21.57;98781.84;5035253;28;20128;-48
2022/08/02 07:22:41;;;;;;;6.60;2.30;;;;;;;40.00;21.83;98790.56;5035261;28;20034;-47
2022/08/02 07:25:07;;;;;;;5.68;1.83;;;;;;;39.70;22.12;98776.06;5035243;28;20036;-47
2022/08/02 07:27:33;;;;;;;11.30;2.28;;;;;;;39.81;22.69;98786.25;5059225;28;20048;-48
2022/08/02 07:29:59;;;;;;;9.35;1.90;;;;;;;39.38;22.58;98786.25;5072936;28;20028;-50
2022/08/02 07:32:28;;;;;;;8.43;1.85;;;;;;;38.96;23.03;98789.31;5073178;28;20020;-50
2022/08/02 07:34:55;;;;;;;44.30;4.63;;;;;;;38.89;22.88;98794.00;5072838;28;20036;-50
2022/08/02 07:37:22;;;;;;;10.55;2.40;;;;;;;39.10;23.08;98785.84;5054884;28;20134;-50
2022/08/02 07:39:48;;;;;;;18.08;3.38;;;;;;;39.55;22.94;98782.75;5072824;28;20048;-51
2022/08/02 07:42:14;;;;;;;14.55;2.20;;;;;;;40.00;21.88;98774.84;5072590;28;20059;-51
2022/08/02 07:44:39;;;;;;;8.85;1.83;;;;;;;40.54;21.37;98782.94;5072715;28;20031;-51
2022/08/02 07:47:05;;;;;;;11.57;2.28;;;;;;;40.91;20.95;98773.31;5054366;28;20031;-50
2022/08/02 07:49:31;;;;;;;9.10;1.92;;;;;;;41.03;20.74;98764.63;5054687;28;20020;-49
2022/08/02 07:51:57;;;;;;;9.60;2.20;;;;;;;41.43;20.23;98759.59;5054539;28;20021;-52
2022/08/02 07:54:23;;;;;;;31.73;3.33;;;;;;;41.72;20.25;98767.63;5054519;28;20059;-51
2022/08/02 07:56:49;;;;;;;49.92;3.53;;;;;;;41.95;19.98;98771.72;5072517;28;20048;-52
2022/08/02 07:59:14;;;;;;;10.88;2.13;;;;;;;41.98;19.54;98762.63;5072401;28;20441;-52
2022/08/02 08:01:40;;;;;;;22.20;3.25;;;;;;;41.94;20.04;98764.63;5072377;28;20054;-52
2022/08/02 08:04:06;;;;;;;10.57;2.00;;;;;;;42.15;19.55;98767.19;5072292;28;20028;-51
2022/08/02 08:06:32;;;;;;;15.63;2.30;;;;;;;42.11;20.03;98770.00;5054294;28;20021;-50
2022/08/02 08:08:58;;;;;;;13.65;2.15;;;;;;;41.81;19.88;98759.66;5072254;28;20036;-52
2022/08/02 08:11:24;;;;;;;6.88;1.88;;;;;;;41.82;19.71;98764.00;5072153;28;20017;-52
2022/08/02 08:13:49;;;;;;;9.38;1.58;;;;;;;42.14;19.30;98760.13;5072207;28;20036;-52
2022/08/02 08:16:15;;;;;;;7.70;1.58;;;;;;;42.34;18.92;98756.72;5072089;28;20044;-50
2022/08/02 08:18:41;;;;;;;11.32;1.90;;;;;;;42.57;18.76;98756.84;5054131;28;20046;-51
2022/08/02 08:21:07;;;;;;;4.10;1.20;;;;;;;42.25;19.05;98752.50;5072273;28;20386;-51
2022/08/02 08:23:34;;;;;;;5.53;1.80;;;;;;;42.23;18.83;98760.41;5072070;28;20112;-51
2022/08/02 08:25:59;;;;;;;8.50;1.70;;;;;;;42.69;18.79;98769.31;5072034;28;20048;-50
2022/08/02 08:28:25;;;;;;;10.75;1.63;;;;;;;42.74;18.68;98768.81;5053756;28;20121;-50
2022/08/02 08:30:51;;;;;;;2.70;0.98;;;;;;;42.61;18.36;98762.31;5053911;28;20032;-49
2022/08/02 08:33:17;;;;;;;13.20;1.60;;;;;;;43.10;18.12;98765.56;5053938;28;20504;-50
2022/08/02 08:35:42;;;;;;;10.93;2.05;;;;;;;43.85;17.34;98761.56;5053888;28;20375;-50
2022/08/02 08:38:08;;;;;;;12.75;2.10;;;;;;;44.04;17.41;98770.28;5071920;28;20012;-50
2022/08/02 08:40:35;;;;;;;15.40;2.13;;;;;;;43.85;17.13;98761.56;5053759;28;20067;-51
2022/08/02 08:43:02;;;;;;;12.25;2.28;;;;;;;43.84;17.69;98757.22;5071778;28;20448;-49
2022/08/02 08:45:28;;;;;;;6.68;1.63;;;;;;;44.00;17.05;98770.34;5071764;28;20035;-50
2022/08/02 08:48:09;;;;;;;9.07;1.75;;;;;;;44.03;17.38;98757.66;5071823;28;20017;-51
2022/08/02 08:50:38;;;;;;;17.27;2.58;;;;;;;44.24;17.40;98757.25;5071641;28;20029;-50
2022/08/02 08:53:08;;;;;;;19.15;2.42;;;;;;;44.55;17.07;98754.25;5053679;28;20490;-51
2022/08/02 08:55:36;;;;;;;29.15;3.00;;;;;;;44.12;17.29;98744.06;5053677;28;20028;-51
2022/08/02 08:58:03;;;;;;;9.98;1.98;;;;;;;44.13;17.17;98753.16;5071008;28;20041;-51
2022/08/02 09:00:31;;;;;;;7.10;1.73;;;;;;;44.54;16.69;98749.94;5071676;28;20386;-49
2022/08/02 09:02:57;;;;;;;12.70;2.35;;;;;;;44.93;16.73;98750.28;5071659;28;20021;-51
2022/08/02 09:05:24;;;;;;;22.52;3.10;;;;;;;45.43;16.19;98746.28;5071513;28;20028;-51
2022/08/02 09:07:52;;;;;;;38.70;3.92;;;;;;;45.54;15.96;98746.00;5071609;28;20371;-52
2022/08/02 09:10:36;;;;;;;14.82;2.15;;;;;;;45.51;16.15;98750.44;5053436;28;20028;-50
2022/08/02 09:13:30;;;;;;;11.07;1.63;;;;;;;45.22;15.83;98745.59;5053533;28;20064;-51
2022/08/02 09:16:05;;;;;;;22.33;2.53;;;;;;;44.78;16.17;98749.81;5063747;28;20037;-50
2022/08/02 09:18:37;;;;;;;22.05;2.40;;;;;;;44.54;16.41;98752.72;5071557;28;20278;-50
2022/08/02 09:21:05;;;;;;;11.20;1.92;;;;;;;44.02;16.64;98750.56;5071372;28;20035;-50
2022/08/02 09:23:36;;;;;;;21.08;2.17;;;;;;;44.12;16.48;98741.31;5071412;28;20514;-50
2022/08/02 09:26:08;;;;;;;13.77;2.53;;;;;;;44.57;16.71;98740.75;5071439;28;20039;-50
2022/08/02 09:28:36;;;;;;;7.43;1.63;;;;;;;44.91;16.00;98736.84;5071108;28;20052;-49
2022/08/02 09:31:08;;;;;;;11.27;1.70;;;;;;;44.68;16.59;98746.06;5053274;28;20100;-49
2022/08/02 09:33:35;;;;;;;12.00;1.40;;;;;;;44.47;16.04;98747.31;5071378;28;20106;-50
2022/08/02 09:36:07;;;;;;;6.80;1.10;;;;;;;44.34;15.91;98741.66;5071291;28;20031;-50
2022/08/02 09:38:35;;;;;;;9.85;1.65;;;;;;;44.42;15.88;98742.28;5071303;28;20455;-50
2022/08/02 09:41:03;;;;;;;9.43;1.40;;;;;;;44.72;15.36;98748.78;5071258;28;20032;-49
2022/08/02 09:43:40;;;;;;;16.40;1.48;;;;;;;44.33;15.92;98744.84;5071487;28;20398;-49
2022/08/02 09:46:16;;;;;;;8.80;1.13;;;;;;;44.11;15.79;98747.25;5071180;28;20041;-48
2022/08/02 09:48:59;;;;;;;9.82;1.52;;;;;;;44.20;15.96;98742.72;5053181;28;20036;-49
2022/08/02 09:51:29;;;;;;;16.50;1.95;;;;;;;44.50;15.88;98745.69;5053066;28;20020;-49
2022/08/02 09:54:01;;;;;;;13.65;2.05;;;;;;;44.83;15.30;98740.97;5053139;28;20101;-49
2022/08/02 09:56:38;;;;;;;8.95;1.48;;;;;;;44.67;15.31;98739.75;5071034;28;20104;-49
2022/08/02 09:59:08;;;;;;;13.50;1.13;;;;;;;44.39;15.32;98741.16;5053086;28;20039;-50
2022/08/02 10:01:34;;;;;;;8.20;1.23;;;;;;;44.37;15.68;98743.53;5071316;28;20397;-49
2022/08/02 10:04:03;;;;;;;30.85;3.55;;;;;;;44.41;15.90;98738.75;5071082;28;20039;-49
2022/08/02 10:06:29;;;;;;;8.55;1.20;;;;;;;44.58;15.50;98730.50;5053090;28;20475;-49
2022/08/02 10:08:55;;;;;;;3.45;1.17;;;;;;;44.53;15.85;98736.53;5071794;28;20029;-51
2022/08/02 10:11:23;;;;;;;5.85;1.48;;;;;;;44.90;15.21;98735.31;5074449;28;20032;-51
2022/08/02 10:13:49;;;;;;;6.85;1.40;;;;;;;45.53;14.98;98736.13;5074551;28;20501;-50
2022/08/02 10:16:20;;;;;;;6.35;1.00;;;;;;;45.50;14.38;98721.16;5074457;28;20023;-50
2022/08/02 10:18:49;;;;;;;7.30;1.20;;;;;;;44.99;14.58;98732.69;5074464;28;20137;-49
2022/08/02 10:21:37;;;;;;;8.88;1.02;;;;;;;44.57;15.17;98726.16;5074262;28;20494;-49
2022/08/02 10:24:08;;;;;;;10.65;1.52;;;;;;;44.72;14.85;98732.16;5056384;28;20512;-49
2022/08/02 10:26:37;;;;;;;15.40;1.90;;;;;;;44.47;15.39;98719.63;5074309;28;20090;-50
2022/08/02 10:29:03;;;;;;;5.25;1.50;;;;;;;44.67;15.44;98717.63;5037402;28;20870;-49
2022/08/02 10:31:53;;;;;;;5.65;1.00;;;;;;;44.81;15.18;98715.72;5036166;28;20509;-51
2022/08/02 10:34:23;;;;;;;8.23;1.67;;;;;;;44.79;15.42;98709.81;5054100;28;20032;-51
2022/08/02 10:36:50;;;;;;;4.63;1.08;;;;;;;44.61;15.12;98711.00;5054060;28;20094;-51
2022/08/02 10:39:18;;;;;;;8.23;1.73;;;;;;;44.65;14.56;98713.69;5054267;28;20021;-50
2022/08/02 10:41:49;;;;;;;14.30;2.28;;;;;;;44.66;15.06;98716.03;5053930;28;20025;-49
2022/08/02 10:44:26;;;;;;;13.65;1.90;;;;;;;45.00;14.87;98700.25;5053825;28;20028;-48
2022/08/02 10:47:24;;;;;;;14.80;2.53;;;;;;;45.24;14.36;98704.38;5053793;28;20448;-49
2022/08/02 10:49:58;;;;;;;6.07;1.30;;;;;;;45.47;14.00;98699.84;5053781;28;20394;-49
2022/08/02 10:52:28;;;;;;;11.18;1.52;;;;;;;44.99;14.24;98699.47;5035876;28;20072;-50
2022/08/02 10:54:56;;;;;;;12.35;1.17;;;;;;;44.77;14.74;98699.16;5053761;28;20029;-49
2022/08/02 10:57:24;;;;;;;9.32;1.25;;;;;;;44.84;14.59;98687.94;5053641;28;20035;-49
2022/08/02 10:59:54;;;;;;;6.97;1.48;;;;;;;44.41;14.65;98688.13;5053847;28;20396;-49
2022/08/02 11:02:58;;;;;;;10.73;1.40;;;;;;;44.42;14.80;98684.16;5035598;28;20049;-48
2022/08/02 11:05:32;;;;;;;6.25;1.38;;;;;;;44.43;14.58;98682.94;4956339;28;20133;-51
2022/08/02 11:07:58;;;;;;;13.82;2.08;;;;;;;44.64;14.54;98688.00;4956353;28;20630;-49
2022/08/02 11:10:29;;;;;;;6.50;1.38;;;;;;;44.47;14.39;98686.44;4972400;28;20031;-50
2022/08/02 11:13:16;;;;;;;11.02;1.63;;;;;;;44.42;14.68;98682.16;4972560;28;20031;-50
2022/08/02 11:16:03;;;;;;;23.13;2.58;;;;;;;44.59;14.78;98679.44;4972537;28;20066;-49
2022/08/02 11:18:50;;;;;;;18.13;2.42;;;;;;;45.04;13.85;98662.94;4972466;28;20106;-50
2022/08/02 11:21:22;;;;;;;14.82;1.90;;;;;;;45.17;13.56;98654.69;4971791;28;20054;-49
2022/08/02 11:23:48;;;;;;;15.77;1.95;;;;;;;44.99;13.87;98666.22;4956034;28;20042;-50
2022/08/02 11:26:29;;;;;;;12.68;1.63;;;;;;;44.71;14.20;98662.13;4952858;29;20031;-49
2022/08/02 11:28:55;;;;;;;12.75;1.55;;;;;;;44.61;14.11;98655.63;4982076;28;20090;-50
2022/08/02 11:31:21;;;;;;;7.63;1.42;;;;;;;44.81;14.07;98658.31;4975160;28;20117;-50
2022/08/02 11:33:50;;;;;;;5.55;1.20;;;;;;;45.02;13.68;98651.50;4991592;28;20181;-50
2022/08/02 11:36:17;;;;;;;6.20;1.25;;;;;;;45.20;13.27;98648.28;5016845;28;20509;-50
2022/08/02 11:38:43;;;;;;;11.20;1.42;;;;;;;45.31;13.32;98645.25;5052940;28;20103;-51